sensor_id;sensor_type;location;lat;lon;timestamp;noise_LAeq;noise_LA_min;noise_LA_max;noise_LA01;noise_LA95
74214;Laerm;62576;55.694;37.494;2023-05-10T00:01:37;56.79;54.61;62.64;;
74214;Laerm;62576;55.694;37.494;2023-05-10T00:04:08;57.58;54.66;66.46;;
74214;Laerm;62576;55.694;37.494;2023-05-10T00:06:38;59.29;54.62;73.79;;
74214;Laerm;62576;55.694;37.494;2023-05-10T00:09:08;56.42;54.66;60.61;;
74214;Laerm;62576;55.694;37.494;2023-05-10T00:11:38;57.38;54.68;64.97;;
74214;Laerm;62576;55.694;37.494;2023-05-10T00:14:11;57.29;54.75;63.50;;
74214;Laerm;62576;55.694;37.494;2023-05-10T00:16:41;57.51;54.69;64.46;;
74214;Laerm;62576;55.694;37.494;2023-05-10T00:19:13;57.44;54.86;61.77;;
74214;Laerm;62576;55.694;37.494;2023-05-10T00:21:40;56.82;54.67;62.48;;
74214;Laerm;62576;55.694;37.494;2023-05-10T00:24:10;56.50;54.72;61.03;;
74214;Laerm;62576;55.694;37.494;2023-05-10T00:26:40;55.96;54.63;59.13;;
74214;Laerm;62576;55.694;37.494;2023-05-10T00:29:10;56.54;54.50;61.35;;
74214;Laerm;62576;55.694;37.494;2023-05-10T00:31:40;56.82;54.84;61.14;;
74214;Laerm;62576;55.694;37.494;2023-05-10T00:34:12;58.13;54.57;64.14;;
74214;Laerm;62576;55.694;37.494;2023-05-10T00:36:42;56.55;54.65;60.60;;
74214;Laerm;62576;55.694;37.494;2023-05-10T00:39:12;57.06;54.51;65.30;;
74214;Laerm;62576;55.694;37.494;2023-05-10T00:41:42;57.40;54.82;63.10;;
74214;Laerm;62576;55.694;37.494;2023-05-10T00:44:14;56.42;54.68;67.43;;
74214;Laerm;62576;55.694;37.494;2023-05-10T00:46:44;57.93;55.29;65.36;;
74214;Laerm;62576;55.694;37.494;2023-05-10T00:49:16;56.31;54.79;67.59;;
74214;Laerm;62576;55.694;37.494;2023-05-10T00:51:47;56.61;54.70;60.60;;
74214;Laerm;62576;55.694;37.494;2023-05-10T00:54:17;57.56;54.62;72.99;;
74214;Laerm;62576;55.694;37.494;2023-05-10T00:56:47;56.55;54.76;61.72;;
74214;Laerm;62576;55.694;37.494;2023-05-10T00:59:18;56.40;54.50;60.07;;
74214;Laerm;62576;55.694;37.494;2023-05-10T01:01:46;57.15;54.75;62.52;;
74214;Laerm;62576;55.694;37.494;2023-05-10T01:04:19;56.12;54.44;60.71;;
74214;Laerm;62576;55.694;37.494;2023-05-10T01:06:54;56.52;54.59;63.67;;
74214;Laerm;62576;55.694;37.494;2023-05-10T01:09:24;56.56;54.68;61.06;;
74214;Laerm;62576;55.694;37.494;2023-05-10T01:11:56;57.85;54.96;67.07;;
74214;Laerm;62576;55.694;37.494;2023-05-10T01:14:27;56.41;54.74;60.22;;
74214;Laerm;62576;55.694;37.494;2023-05-10T01:16:57;56.63;54.90;60.75;;
74214;Laerm;62576;55.694;37.494;2023-05-10T01:19:31;58.81;54.90;69.19;;
74214;Laerm;62576;55.694;37.494;2023-05-10T01:22:16;56.85;54.83;60.58;;
74214;Laerm;62576;55.694;37.494;2023-05-10T01:25:19;56.80;54.65;61.53;;
74214;Laerm;62576;55.694;37.494;2023-05-10T01:28:31;56.87;54.79;62.53;;
74214;Laerm;62576;55.694;37.494;2023-05-10T01:31:12;56.16;54.44;61.22;;
74214;Laerm;62576;55.694;37.494;2023-05-10T01:33:53;68.33;54.80;90.13;;
74214;Laerm;62576;55.694;37.494;2023-05-10T01:36:29;57.63;55.13;65.00;;
74214;Laerm;62576;55.694;37.494;2023-05-10T01:39:05;56.42;54.63;62.88;;
74214;Laerm;62576;55.694;37.494;2023-05-10T01:41:44;64.16;55.46;79.89;;
74214;Laerm;62576;55.694;37.494;2023-05-10T01:44:20;64.44;56.90;79.45;;
74214;Laerm;62576;55.694;37.494;2023-05-10T01:46:57;57.88;55.21;64.19;;
74214;Laerm;62576;55.694;37.494;2023-05-10T01:49:36;57.70;55.04;63.28;;
74214;Laerm;62576;55.694;37.494;2023-05-10T01:52:09;57.52;55.09;63.49;;
74214;Laerm;62576;55.694;37.494;2023-05-10T01:54:43;57.22;55.05;63.11;;
74214;Laerm;62576;55.694;37.494;2023-05-10T01:57:15;58.78;55.17;65.18;;
74214;Laerm;62576;55.694;37.494;2023-05-10T01:59:49;58.40;55.48;65.21;;
74214;Laerm;62576;55.694;37.494;2023-05-10T02:02:17;58.76;55.59;64.79;;
74214;Laerm;62576;55.694;37.494;2023-05-10T02:04:50;57.99;55.38;62.32;;
74214;Laerm;62576;55.694;37.494;2023-05-10T02:07:22;59.03;55.20;70.69;;
74214;Laerm;62576;55.694;37.494;2023-05-10T02:09:53;57.90;55.15;64.07;;
74214;Laerm;62576;55.694;37.494;2023-05-10T02:12:25;58.20;55.09;63.36;;
74214;Laerm;62576;55.694;37.494;2023-05-10T02:14:57;58.54;55.25;64.53;;
74214;Laerm;62576;55.694;37.494;2023-05-10T02:17:30;57.97;54.93;65.08;;
74214;Laerm;62576;55.694;37.494;2023-05-10T02:20:04;60.07;55.92;67.03;;
74214;Laerm;62576;55.694;37.494;2023-05-10T02:22:35;63.51;59.16;68.02;;
74214;Laerm;62576;55.694;37.494;2023-05-10T02:25:10;61.82;55.94;71.32;;
74214;Laerm;62576;55.694;37.494;2023-05-10T02:27:44;61.78;56.34;73.75;;
74214;Laerm;62576;55.694;37.494;2023-05-10T02:30:16;60.90;56.25;71.14;;
74214;Laerm;62576;55.694;37.494;2023-05-10T02:32:48;58.76;55.67;64.23;;
74214;Laerm;62576;55.694;37.494;2023-05-10T02:35:21;58.50;55.49;64.35;;
74214;Laerm;62576;55.694;37.494;2023-05-10T02:37:53;59.26;55.67;67.59;;
74214;Laerm;62576;55.694;37.494;2023-05-10T02:40:24;59.96;56.03;69.49;;
74214;Laerm;62576;55.694;37.494;2023-05-10T02:42:57;59.28;55.76;64.66;;
74214;Laerm;62576;55.694;37.494;2023-05-10T02:45:30;59.35;55.54;66.44;;
74214;Laerm;62576;55.694;37.494;2023-05-10T02:48:01;59.85;55.49;65.97;;
74214;Laerm;62576;55.694;37.494;2023-05-10T02:50:33;58.92;55.49;67.67;;
74214;Laerm;62576;55.694;37.494;2023-05-10T02:53:10;59.29;55.83;63.80;;
74214;Laerm;62576;55.694;37.494;2023-05-10T02:55:41;60.17;56.30;66.52;;
74214;Laerm;62576;55.694;37.494;2023-05-10T02:58:11;58.47;55.54;63.51;;
74214;Laerm;62576;55.694;37.494;2023-05-10T03:00:42;59.08;55.35;65.50;;
74214;Laerm;62576;55.694;37.494;2023-05-10T03:03:12;58.72;55.84;64.41;;
74214;Laerm;62576;55.694;37.494;2023-05-10T03:05:43;60.30;55.68;68.55;;
74214;Laerm;62576;55.694;37.494;2023-05-10T03:08:16;59.73;56.28;64.79;;
74214;Laerm;62576;55.694;37.494;2023-05-10T03:10:54;61.09;56.49;65.98;;
74214;Laerm;62576;55.694;37.494;2023-05-10T03:13:29;59.55;55.86;64.00;;
74214;Laerm;62576;55.694;37.494;2023-05-10T03:16:08;60.41;55.83;66.94;;
74214;Laerm;62576;55.694;37.494;2023-05-10T03:18:44;59.69;56.45;64.91;;
74214;Laerm;62576;55.694;37.494;2023-05-10T03:21:19;61.49;56.48;70.61;;
74214;Laerm;62576;55.694;37.494;2023-05-10T03:23:58;60.91;56.01;66.27;;
74214;Laerm;62576;55.694;37.494;2023-05-10T03:26:29;60.51;56.21;67.10;;
74214;Laerm;62576;55.694;37.494;2023-05-10T03:28:59;61.47;56.06;69.57;;
74214;Laerm;62576;55.694;37.494;2023-05-10T03:31:29;61.84;57.11;68.06;;
74214;Laerm;62576;55.694;37.494;2023-05-10T03:33:59;61.58;56.36;71.79;;
74214;Laerm;62576;55.694;37.494;2023-05-10T03:36:31;60.33;56.47;66.65;;
74214;Laerm;62576;55.694;37.494;2023-05-10T03:39:01;61.14;56.31;69.16;;
74214;Laerm;62576;55.694;37.494;2023-05-10T03:41:31;61.78;57.15;69.97;;
74214;Laerm;62576;55.694;37.494;2023-05-10T03:44:02;61.35;56.88;68.44;;
74214;Laerm;62576;55.694;37.494;2023-05-10T03:46:32;61.84;56.94;68.60;;
74214;Laerm;62576;55.694;37.494;2023-05-10T03:49:02;62.96;57.05;71.15;;
74214;Laerm;62576;55.694;37.494;2023-05-10T03:51:33;62.27;57.62;70.92;;
74214;Laerm;62576;55.694;37.494;2023-05-10T03:54:04;62.65;56.69;81.46;;
74214;Laerm;62576;55.694;37.494;2023-05-10T03:56:34;63.30;57.35;69.54;;
74214;Laerm;62576;55.694;37.494;2023-05-10T03:59:04;61.87;56.49;65.90;;
74214;Laerm;62576;55.694;37.494;2023-05-10T04:01:35;61.90;56.46;66.36;;
74214;Laerm;62576;55.694;37.494;2023-05-10T04:04:05;61.97;57.60;65.53;;
74214;Laerm;62576;55.694;37.494;2023-05-10T04:06:37;63.17;57.21;69.84;;
74214;Laerm;62576;55.694;37.494;2023-05-10T04:09:07;64.02;56.79;71.55;;
74214;Laerm;62576;55.694;37.494;2023-05-10T04:11:37;63.15;57.55;69.04;;
74214;Laerm;62576;55.694;37.494;2023-05-10T04:14:08;63.56;57.19;69.39;;
74214;Laerm;62576;55.694;37.494;2023-05-10T04:16:44;63.01;58.44;67.57;;
74214;Laerm;62576;55.694;37.494;2023-05-10T04:19:14;62.89;57.55;69.16;;
74214;Laerm;62576;55.694;37.494;2023-05-10T04:21:45;63.04;57.10;66.85;;
74214;Laerm;62576;55.694;37.494;2023-05-10T04:24:19;63.17;57.64;68.65;;
74214;Laerm;62576;55.694;37.494;2023-05-10T04:26:49;63.82;58.58;70.77;;
74214;Laerm;62576;55.694;37.494;2023-05-10T04:29:19;65.91;60.74;73.78;;
74214;Laerm;62576;55.694;37.494;2023-05-10T04:31:49;64.51;58.67;70.01;;
74214;Laerm;62576;55.694;37.494;2023-05-10T04:34:20;65.32;58.57;71.92;;
74214;Laerm;62576;55.694;37.494;2023-05-10T04:36:52;64.56;58.86;70.85;;
74214;Laerm;62576;55.694;37.494;2023-05-10T04:39:22;63.71;58.72;68.05;;
74214;Laerm;62576;55.694;37.494;2023-05-10T04:41:51;64.27;56.94;70.74;;
74214;Laerm;62576;55.694;37.494;2023-05-10T04:44:23;64.43;58.65;69.27;;
74214;Laerm;62576;55.694;37.494;2023-05-10T04:46:53;64.32;58.59;69.69;;
74214;Laerm;62576;55.694;37.494;2023-05-10T04:49:23;64.96;59.12;76.51;;
74214;Laerm;62576;55.694;37.494;2023-05-10T04:55:19;64.71;58.90;69.80;;
74214;Laerm;62576;55.694;37.494;2023-05-10T04:57:49;64.29;60.22;71.33;;
74214;Laerm;62576;55.694;37.494;2023-05-10T05:00:19;64.13;60.16;67.82;;
74214;Laerm;62576;55.694;37.494;2023-05-10T05:02:49;64.54;59.09;71.25;;
74214;Laerm;62576;55.694;37.494;2023-05-10T05:05:20;64.61;60.30;69.37;;
74214;Laerm;62576;55.694;37.494;2023-05-10T05:07:50;63.95;56.50;68.34;;
74214;Laerm;62576;55.694;37.494;2023-05-10T05:10:25;64.94;59.77;69.12;;
74214;Laerm;62576;55.694;37.494;2023-05-10T05:12:55;64.75;59.44;73.86;;
74214;Laerm;62576;55.694;37.494;2023-05-10T05:15:25;65.17;61.18;72.19;;
74214;Laerm;62576;55.694;37.494;2023-05-10T05:17:59;67.81;59.19;80.62;;
74214;Laerm;62576;55.694;37.494;2023-05-10T05:20:32;65.27;58.65;69.76;;
74214;Laerm;62576;55.694;37.494;2023-05-10T05:23:02;65.11;59.91;72.03;;
74214;Laerm;62576;55.694;37.494;2023-05-10T05:25:34;64.89;60.44;70.10;;
74214;Laerm;62576;55.694;37.494;2023-05-10T05:28:01;64.67;60.18;69.14;;
74214;Laerm;62576;55.694;37.494;2023-05-10T05:30:34;65.90;60.85;78.85;;
74214;Laerm;62576;55.694;37.494;2023-05-10T05:33:04;66.50;60.44;77.91;;
74214;Laerm;62576;55.694;37.494;2023-05-10T05:35:37;65.09;61.29;71.88;;
74214;Laerm;62576;55.694;37.494;2023-05-10T05:38:07;65.22;60.92;72.36;;
74214;Laerm;62576;55.694;37.494;2023-05-10T05:40:39;65.28;61.05;73.52;;
74214;Laerm;62576;55.694;37.494;2023-05-10T05:43:15;65.20;60.45;71.71;;
74214;Laerm;62576;55.694;37.494;2023-05-10T05:45:45;65.75;60.96;69.61;;
74214;Laerm;62576;55.694;37.494;2023-05-10T05:48:16;65.82;61.00;69.60;;
74214;Laerm;62576;55.694;37.494;2023-05-10T05:50:46;66.18;61.30;72.72;;
74214;Laerm;62576;55.694;37.494;2023-05-10T05:53:16;65.32;59.68;69.31;;
74214;Laerm;62576;55.694;37.494;2023-05-10T05:55:53;64.68;60.05;67.98;;
74214;Laerm;62576;55.694;37.494;2023-05-10T05:58:23;65.01;61.03;70.26;;
74214;Laerm;62576;55.694;37.494;2023-05-10T06:00:54;66.28;60.11;79.01;;
74214;Laerm;62576;55.694;37.494;2023-05-10T06:03:24;65.17;59.45;72.57;;
74214;Laerm;62576;55.694;37.494;2023-05-10T06:05:54;64.98;59.88;68.77;;
74214;Laerm;62576;55.694;37.494;2023-05-10T06:08:24;65.16;60.93;72.05;;
74214;Laerm;62576;55.694;37.494;2023-05-10T06:10:56;65.08;60.74;72.67;;
74214;Laerm;62576;55.694;37.494;2023-05-10T06:13:25;65.65;60.43;72.62;;
74214;Laerm;62576;55.694;37.494;2023-05-10T06:16:00;64.91;60.82;69.08;;
74214;Laerm;62576;55.694;37.494;2023-05-10T06:18:30;65.08;59.78;70.87;;
74214;Laerm;62576;55.694;37.494;2023-05-10T06:21:00;64.69;60.66;68.03;;
74214;Laerm;62576;55.694;37.494;2023-05-10T06:23:30;64.61;59.81;74.71;;
74214;Laerm;62576;55.694;37.494;2023-05-10T06:26:02;65.01;60.19;70.42;;
74214;Laerm;62576;55.694;37.494;2023-05-10T06:28:32;65.99;62.22;73.28;;
74214;Laerm;62576;55.694;37.494;2023-05-10T06:31:03;65.67;60.96;75.23;;
74214;Laerm;62576;55.694;37.494;2023-05-10T06:33:33;64.80;59.79;70.78;;
74214;Laerm;62576;55.694;37.494;2023-05-10T06:36:04;65.31;60.69;73.05;;
74214;Laerm;62576;55.694;37.494;2023-05-10T06:38:34;65.54;58.95;76.23;;
74214;Laerm;62576;55.694;37.494;2023-05-10T06:41:06;66.22;61.23;73.24;;
74214;Laerm;62576;55.694;37.494;2023-05-10T06:43:36;66.30;61.66;74.84;;
74214;Laerm;62576;55.694;37.494;2023-05-10T06:46:08;65.81;61.06;73.41;;
74214;Laerm;62576;55.694;37.494;2023-05-10T06:48:38;65.24;60.94;70.91;;
74214;Laerm;62576;55.694;37.494;2023-05-10T06:51:08;66.21;61.29;71.46;;
74214;Laerm;62576;55.694;37.494;2023-05-10T06:53:38;65.59;61.54;70.15;;
74214;Laerm;62576;55.694;37.494;2023-05-10T06:56:10;66.00;62.43;71.65;;
74214;Laerm;62576;55.694;37.494;2023-05-10T06:58:40;66.01;62.49;76.84;;
74214;Laerm;62576;55.694;37.494;2023-05-10T07:01:09;65.12;60.78;71.43;;
74214;Laerm;62576;55.694;37.494;2023-05-10T07:03:40;64.80;58.56;74.04;;
74214;Laerm;62576;55.694;37.494;2023-05-10T07:06:10;65.38;58.76;77.48;;
74214;Laerm;62576;55.694;37.494;2023-05-10T07:08:40;64.83;57.60;76.02;;
74214;Laerm;62576;55.694;37.494;2023-05-10T07:11:11;63.98;58.25;70.58;;
74214;Laerm;62576;55.694;37.494;2023-05-10T07:13:41;64.16;58.86;69.05;;
74214;Laerm;62576;55.694;37.494;2023-05-10T07:16:13;63.73;57.86;68.79;;
74214;Laerm;62576;55.694;37.494;2023-05-10T07:18:43;63.58;58.54;69.13;;
74214;Laerm;62576;55.694;37.494;2023-05-10T07:21:13;63.53;58.06;70.61;;
74214;Laerm;62576;55.694;37.494;2023-05-10T07:23:43;64.51;58.66;74.66;;
74214;Laerm;62576;55.694;37.494;2023-05-10T07:26:14;65.09;60.39;69.27;;
74214;Laerm;62576;55.694;37.494;2023-05-10T07:28:45;63.78;57.09;68.36;;
74214;Laerm;62576;55.694;37.494;2023-05-10T07:31:15;64.61;58.90;69.72;;
74214;Laerm;62576;55.694;37.494;2023-05-10T07:33:45;67.95;61.39;74.09;;
74214;Laerm;62576;55.694;37.494;2023-05-10T07:36:15;64.54;59.15;69.49;;
74214;Laerm;62576;55.694;37.494;2023-05-10T07:38:46;63.99;59.26;69.93;;
74214;Laerm;62576;55.694;37.494;2023-05-10T07:41:19;63.58;56.07;71.16;;
74214;Laerm;62576;55.694;37.494;2023-05-10T07:43:51;62.50;55.98;69.14;;
74214;Laerm;62576;55.694;37.494;2023-05-10T07:46:21;62.87;54.43;69.64;;
74214;Laerm;62576;55.694;37.494;2023-05-10T07:48:50;64.13;58.46;69.12;;
74214;Laerm;62576;55.694;37.494;2023-05-10T07:51:20;65.02;59.79;70.32;;
74214;Laerm;62576;55.694;37.494;2023-05-10T07:53:50;62.64;56.52;67.70;;
74214;Laerm;62576;55.694;37.494;2023-05-10T07:56:23;62.55;57.07;66.90;;
74214;Laerm;62576;55.694;37.494;2023-05-10T07:58:55;63.71;56.33;68.71;;
74214;Laerm;62576;55.694;37.494;2023-05-10T08:01:26;62.31;55.54;68.50;;
74214;Laerm;62576;55.694;37.494;2023-05-10T08:03:59;65.50;58.56;78.32;;
74214;Laerm;62576;55.694;37.494;2023-05-10T08:06:29;63.61;58.71;67.81;;
74214;Laerm;62576;55.694;37.494;2023-05-10T08:09:00;65.33;61.07;70.65;;
74214;Laerm;62576;55.694;37.494;2023-05-10T08:11:31;64.58;54.26;76.05;;
74214;Laerm;62576;55.694;37.494;2023-05-10T08:14:01;63.64;53.74;73.23;;
74214;Laerm;62576;55.694;37.494;2023-05-10T08:16:31;64.84;54.05;69.86;;
74214;Laerm;62576;55.694;37.494;2023-05-10T08:19:02;64.64;56.11;69.55;;
74214;Laerm;62576;55.694;37.494;2023-05-10T08:21:32;65.91;59.06;73.86;;
74214;Laerm;62576;55.694;37.494;2023-05-10T08:24:02;63.90;58.23;69.33;;
74214;Laerm;62576;55.694;37.494;2023-05-10T08:26:34;63.53;52.64;69.63;;
74214;Laerm;62576;55.694;37.494;2023-05-10T08:29:04;64.44;57.85;69.53;;
74214;Laerm;62576;55.694;37.494;2023-05-10T08:31:35;65.47;55.05;72.68;;
74214;Laerm;62576;55.694;37.494;2023-05-10T08:34:05;63.82;55.90;67.66;;
74214;Laerm;62576;55.694;37.494;2023-05-10T08:36:34;63.07;54.21;75.54;;
74214;Laerm;62576;55.694;37.494;2023-05-10T08:39:04;63.59;55.18;71.83;;
74214;Laerm;62576;55.694;37.494;2023-05-10T08:41:39;64.44;57.01;69.19;;
74214;Laerm;62576;55.694;37.494;2023-05-10T08:44:09;64.33;57.56;69.87;;
74214;Laerm;62576;55.694;37.494;2023-05-10T08:46:41;63.85;54.03;71.74;;
74214;Laerm;62576;55.694;37.494;2023-05-10T08:49:14;65.25;55.40;76.11;;
74214;Laerm;62576;55.694;37.494;2023-05-10T08:51:51;63.29;56.26;69.20;;
74214;Laerm;62576;55.694;37.494;2023-05-10T08:54:24;63.29;54.34;70.03;;
74214;Laerm;62576;55.694;37.494;2023-05-10T08:56:56;63.89;56.34;70.60;;
74214;Laerm;62576;55.694;37.494;2023-05-10T08:59:26;65.21;57.01;72.50;;
74214;Laerm;62576;55.694;37.494;2023-05-10T09:01:57;63.38;54.87;68.58;;
74214;Laerm;62576;55.694;37.494;2023-05-10T09:04:29;63.39;56.24;72.00;;
74214;Laerm;62576;55.694;37.494;2023-05-10T09:06:59;63.61;55.74;68.54;;
74214;Laerm;62576;55.694;37.494;2023-05-10T09:09:29;63.71;54.72;74.00;;
74214;Laerm;62576;55.694;37.494;2023-05-10T09:12:02;62.54;55.92;70.00;;
74214;Laerm;62576;55.694;37.494;2023-05-10T09:14:33;62.70;56.60;73.14;;
74214;Laerm;62576;55.694;37.494;2023-05-10T09:17:05;63.75;55.59;73.46;;
74214;Laerm;62576;55.694;37.494;2023-05-10T09:19:35;63.18;56.51;69.28;;
74214;Laerm;62576;55.694;37.494;2023-05-10T09:22:05;62.20;56.59;73.53;;
74214;Laerm;62576;55.694;37.494;2023-05-10T09:24:35;63.64;56.86;82.97;;
74214;Laerm;62576;55.694;37.494;2023-05-10T09:27:12;67.05;59.17;86.99;;
74214;Laerm;62576;55.694;37.494;2023-05-10T09:29:43;63.84;56.30;71.57;;
74214;Laerm;62576;55.694;37.494;2023-05-10T09:32:14;62.44;55.76;68.32;;
74214;Laerm;62576;55.694;37.494;2023-05-10T09:34:44;63.03;56.89;71.32;;
74214;Laerm;62576;55.694;37.494;2023-05-10T09:37:15;63.70;56.42;71.63;;
74214;Laerm;62576;55.694;37.494;2023-05-10T09:39:45;64.38;58.15;75.82;;
74214;Laerm;62576;55.694;37.494;2023-05-10T09:42:18;62.81;57.26;71.75;;
74214;Laerm;62576;55.694;37.494;2023-05-10T09:44:51;63.77;57.53;77.45;;
74214;Laerm;62576;55.694;37.494;2023-05-10T09:47:21;62.49;57.79;70.32;;
74214;Laerm;62576;55.694;37.494;2023-05-10T09:49:52;63.25;54.49;70.03;;
74214;Laerm;62576;55.694;37.494;2023-05-10T09:52:24;62.78;54.35;68.89;;
74214;Laerm;62576;55.694;37.494;2023-05-10T09:54:54;62.34;54.01;68.57;;
74214;Laerm;62576;55.694;37.494;2023-05-10T09:57:26;62.37;51.58;68.76;;
74214;Laerm;62576;55.694;37.494;2023-05-10T09:59:56;62.28;53.41;72.56;;
74214;Laerm;62576;55.694;37.494;2023-05-10T10:02:28;62.27;50.96;68.87;;
74214;Laerm;62576;55.694;37.494;2023-05-10T10:05:00;62.90;50.89;70.92;;
74214;Laerm;62576;55.694;37.494;2023-05-10T10:07:31;63.04;57.38;67.72;;
74214;Laerm;62576;55.694;37.494;2023-05-10T10:10:01;63.17;57.29;68.06;;
74214;Laerm;62576;55.694;37.494;2023-05-10T10:12:34;63.37;57.92;68.33;;
74214;Laerm;62576;55.694;37.494;2023-05-10T10:15:05;63.15;58.03;69.12;;
74214;Laerm;62576;55.694;37.494;2023-05-10T10:17:37;66.02;58.94;83.18;;
74214;Laerm;62576;55.694;37.494;2023-05-10T10:20:09;64.16;58.86;70.06;;
74214;Laerm;62576;55.694;37.494;2023-05-10T10:22:39;65.07;60.09;70.53;;
74214;Laerm;62576;55.694;37.494;2023-05-10T10:25:11;64.42;59.97;70.48;;
74214;Laerm;62576;55.694;37.494;2023-05-10T10:27:48;64.71;60.42;71.60;;
74214;Laerm;62576;55.694;37.494;2023-05-10T10:30:28;65.58;60.62;77.28;;
74214;Laerm;62576;55.694;37.494;2023-05-10T10:35:58;64.85;59.73;72.65;;
74214;Laerm;62576;55.694;37.494;2023-05-10T10:41:36;64.93;60.09;72.27;;
74214;Laerm;62576;55.694;37.494;2023-05-10T10:44:24;64.35;60.31;68.66;;
74214;Laerm;62576;55.694;37.494;2023-05-10T10:47:05;65.30;59.68;73.39;;
74214;Laerm;62576;55.694;37.494;2023-05-10T10:52:24;64.76;59.04;72.62;;
74214;Laerm;62576;55.694;37.494;2023-05-10T10:55:01;66.60;60.34;78.94;;
74214;Laerm;62576;55.694;37.494;2023-05-10T10:57:33;64.83;59.28;70.51;;
74214;Laerm;62576;55.694;37.494;2023-05-10T11:00:25;63.81;58.72;72.25;;
74214;Laerm;62576;55.694;37.494;2023-05-10T11:02:58;64.33;58.14;80.94;;
74214;Laerm;62576;55.694;37.494;2023-05-10T11:05:43;65.06;58.15;81.39;;
74214;Laerm;62576;55.694;37.494;2023-05-10T11:08:16;65.21;59.28;73.42;;
74214;Laerm;62576;55.694;37.494;2023-05-10T11:10:51;63.86;58.39;69.99;;
74214;Laerm;62576;55.694;37.494;2023-05-10T11:13:39;64.80;57.92;78.55;;
74214;Laerm;62576;55.694;37.494;2023-05-10T11:16:13;64.45;58.59;69.86;;
74214;Laerm;62576;55.694;37.494;2023-05-10T11:18:59;64.92;57.72;71.31;;
74214;Laerm;62576;55.694;37.494;2023-05-10T11:21:31;65.97;58.91;75.15;;
74214;Laerm;62576;55.694;37.494;2023-05-10T11:24:03;67.22;59.11;73.85;;
74214;Laerm;62576;55.694;37.494;2023-05-10T11:26:42;66.83;56.70;78.43;;
74214;Laerm;62576;55.694;37.494;2023-05-10T11:29:13;67.30;55.22;76.89;;
74214;Laerm;62576;55.694;37.494;2023-05-10T11:31:45;66.27;57.90;74.77;;
74214;Laerm;62576;55.694;37.494;2023-05-10T11:37:02;67.34;58.17;86.02;;
74214;Laerm;62576;55.694;37.494;2023-05-10T11:39:32;63.62;57.75;69.21;;
74214;Laerm;62576;55.694;37.494;2023-05-10T11:42:02;64.32;56.58;70.65;;
74214;Laerm;62576;55.694;37.494;2023-05-10T11:44:33;64.61;57.40;70.80;;
74214;Laerm;62576;55.694;37.494;2023-05-10T11:47:05;63.84;57.79;72.54;;
74214;Laerm;62576;55.694;37.494;2023-05-10T11:49:35;64.77;55.64;70.92;;
74214;Laerm;62576;55.694;37.494;2023-05-10T11:52:05;65.85;58.28;74.60;;
74214;Laerm;62576;55.694;37.494;2023-05-10T11:54:45;67.61;59.76;79.33;;
74214;Laerm;62576;55.694;37.494;2023-05-10T11:57:15;64.59;59.04;73.42;;
74214;Laerm;62576;55.694;37.494;2023-05-10T11:59:45;64.41;58.08;74.05;;
74214;Laerm;62576;55.694;37.494;2023-05-10T12:02:14;64.71;56.88;72.40;;
74214;Laerm;62576;55.694;37.494;2023-05-10T12:04:44;65.03;58.82;76.02;;
74214;Laerm;62576;55.694;37.494;2023-05-10T12:07:15;64.21;57.36;75.64;;
74214;Laerm;62576;55.694;37.494;2023-05-10T12:10:02;64.50;57.00;72.26;;
74214;Laerm;62576;55.694;37.494;2023-05-10T12:12:37;64.44;53.97;70.45;;
74214;Laerm;62576;55.694;37.494;2023-05-10T12:15:11;65.26;56.22;74.82;;
74214;Laerm;62576;55.694;37.494;2023-05-10T12:17:43;65.29;53.30;95.18;;
74214;Laerm;62576;55.694;37.494;2023-05-10T12:20:14;64.55;58.45;71.71;;
74214;Laerm;62576;55.694;37.494;2023-05-10T12:22:47;63.56;55.77;69.51;;
74214;Laerm;62576;55.694;37.494;2023-05-10T12:25:17;63.40;58.70;67.91;;
74214;Laerm;62576;55.694;37.494;2023-05-10T12:27:49;66.19;59.61;72.50;;
74214;Laerm;62576;55.694;37.494;2023-05-10T12:30:21;66.54;59.42;82.48;;
74214;Laerm;62576;55.694;37.494;2023-05-10T12:32:58;64.59;58.68;72.37;;
74214;Laerm;62576;55.694;37.494;2023-05-10T12:35:30;62.39;54.24;67.91;;
74214;Laerm;62576;55.694;37.494;2023-05-10T12:38:00;63.75;54.46;74.05;;
74214;Laerm;62576;55.694;37.494;2023-05-10T12:40:30;64.07;56.85;71.11;;
74214;Laerm;62576;55.694;37.494;2023-05-10T12:43:01;64.87;56.51;73.52;;
74214;Laerm;62576;55.694;37.494;2023-05-10T12:45:31;64.62;58.61;69.88;;
74214;Laerm;62576;55.694;37.494;2023-05-10T12:48:03;64.58;55.38;71.76;;
74214;Laerm;62576;55.694;37.494;2023-05-10T12:50:33;64.57;58.85;70.50;;
74214;Laerm;62576;55.694;37.494;2023-05-10T12:53:03;63.56;58.67;70.47;;
74214;Laerm;62576;55.694;37.494;2023-05-10T12:55:33;63.67;58.64;69.75;;
74214;Laerm;62576;55.694;37.494;2023-05-10T12:58:03;63.59;57.64;68.39;;
74214;Laerm;62576;55.694;37.494;2023-05-10T13:00:33;64.14;55.60;70.74;;
74214;Laerm;62576;55.694;37.494;2023-05-10T13:03:04;63.83;54.39;73.36;;
74214;Laerm;62576;55.694;37.494;2023-05-10T13:05:35;63.65;58.31;67.87;;
74214;Laerm;62576;55.694;37.494;2023-05-10T13:08:05;63.76;58.40;67.90;;
74214;Laerm;62576;55.694;37.494;2023-05-10T13:10:35;63.80;59.42;69.53;;
74214;Laerm;62576;55.694;37.494;2023-05-10T13:13:05;63.79;59.53;71.43;;
74214;Laerm;62576;55.694;37.494;2023-05-10T13:15:36;63.54;57.79;68.12;;
74214;Laerm;62576;55.694;37.494;2023-05-10T13:18:07;62.96;55.54;68.24;;
74214;Laerm;62576;55.694;37.494;2023-05-10T13:20:37;64.65;57.47;72.45;;
74214;Laerm;62576;55.694;37.494;2023-05-10T13:23:08;65.11;54.67;85.30;;
74214;Laerm;62576;55.694;37.494;2023-05-10T13:25:38;65.35;58.21;78.35;;
74214;Laerm;62576;55.694;37.494;2023-05-10T13:28:08;64.12;57.81;72.29;;
74214;Laerm;62576;55.694;37.494;2023-05-10T13:30:38;63.93;58.83;70.41;;
74214;Laerm;62576;55.694;37.494;2023-05-10T13:33:12;63.52;58.04;71.62;;
74214;Laerm;62576;55.694;37.494;2023-05-10T13:35:43;63.69;59.54;67.88;;
74214;Laerm;62576;55.694;37.494;2023-05-10T13:38:13;63.60;56.49;70.15;;
74214;Laerm;62576;55.694;37.494;2023-05-10T13:40:43;63.72;54.56;76.36;;
74214;Laerm;62576;55.694;37.494;2023-05-10T13:43:13;63.89;56.45;69.58;;
74214;Laerm;62576;55.694;37.494;2023-05-10T13:45:43;64.16;58.66;68.52;;
74214;Laerm;62576;55.694;37.494;2023-05-10T13:48:15;63.78;55.08;69.22;;
74214;Laerm;62576;55.694;37.494;2023-05-10T13:50:45;66.02;57.22;85.23;;
74214;Laerm;62576;55.694;37.494;2023-05-10T13:53:16;63.41;56.05;67.32;;
74214;Laerm;62576;55.694;37.494;2023-05-10T13:55:46;64.28;57.35;76.51;;
74214;Laerm;62576;55.694;37.494;2023-05-10T13:58:16;65.37;58.41;73.96;;
74214;Laerm;62576;55.694;37.494;2023-05-10T14:00:46;63.40;58.15;67.69;;
74214;Laerm;62576;55.694;37.494;2023-05-10T14:03:17;64.82;58.61;72.28;;
74214;Laerm;62576;55.694;37.494;2023-05-10T14:05:47;64.19;56.21;69.45;;
74214;Laerm;62576;55.694;37.494;2023-05-10T14:08:17;65.75;58.92;80.40;;
74214;Laerm;62576;55.694;37.494;2023-05-10T14:10:47;64.45;58.39;71.74;;
74214;Laerm;62576;55.694;37.494;2023-05-10T14:13:19;63.55;59.00;70.75;;